createdAt,value
2022-12-18T00:00:01.624Z,98982.69
2022-12-18T00:10:56.039Z,98958.28
2022-12-18T00:14:14.097Z,98955.06
2022-12-18T00:18:39.796Z,98959.59
2022-12-18T01:37:29.336Z,98866.16
2022-12-18T01:41:09.154Z,98874.81
2022-12-18T02:27:35.833Z,98837.72
2022-12-18T02:31:02.517Z,98850.25
2022-12-18T02:34:11.166Z,98842.28
2022-12-18T02:40:29.636Z,98843.13
2022-12-18T02:43:52.223Z,98847.53
2022-12-18T02:47:46.237Z,98830.75
2022-12-18T02:51:17.363Z,98855.75
2022-12-18T02:59:06.910Z,98854.81
2022-12-18T03:02:08.948Z,98841.94
2022-12-18T03:04:51.964Z,98843.34
2022-12-18T03:07:34.411Z,98830.25
2022-12-18T03:10:02.665Z,98818.09
2022-12-18T03:12:37.719Z,98821.78
2022-12-18T03:15:18.010Z,98833.47
2022-12-18T03:17:53.689Z,98843.97
2022-12-18T03:20:23.171Z,98847.19
2022-12-18T03:22:54.803Z,98841.69
2022-12-18T03:25:22.941Z,98856.00
2022-12-18T03:27:58.921Z,98861.72
2022-12-18T03:30:29.622Z,98851.25
2022-12-18T03:33:20.687Z,98843.28
2022-12-18T03:35:50.773Z,98832.19
2022-12-18T03:38:19.268Z,98850.06
2022-12-18T03:41:06.168Z,98855.31
2022-12-18T03:43:51.902Z,98842.69
2022-12-18T03:46:39.583Z,98830.50
2022-12-18T03:49:25.596Z,98844.09
2022-12-18T03:52:07.343Z,98842.44
2022-12-18T03:54:35.784Z,98840.41
2022-12-18T03:57:20.905Z,98843.19
2022-12-18T04:00:07.280Z,98852.69
2022-12-18T04:02:46.277Z,98848.66
2022-12-18T04:05:20.097Z,98845.78
2022-12-18T04:07:50.364Z,98844.75
2022-12-18T04:10:18.783Z,98829.84
2022-12-18T04:12:47.069Z,98841.16
2022-12-18T04:15:15.693Z,98864.88
2022-12-18T04:17:50.767Z,98879.16
2022-12-18T04:20:22.469Z,98882.25
2022-12-18T04:22:49.607Z,98881.19
2022-12-18T04:25:19.703Z,98885.47
2022-12-18T04:27:58.223Z,98887.38
2022-12-18T04:30:25.190Z,98891.69
2022-12-18T04:32:52.589Z,98886.28
2022-12-18T04:35:20.925Z,98899.66
2022-12-18T04:37:48.003Z,98908.97
2022-12-18T04:40:16.096Z,98910.13
2022-12-18T04:42:46.728Z,98913.47
2022-12-18T04:45:13.807Z,98915.97
2022-12-18T04:47:40.795Z,98933.38
2022-12-18T04:50:08.275Z,98936.59
2022-12-18T04:52:35.416Z,98938.16
2022-12-18T04:55:02.420Z,98939.22
2022-12-18T04:57:30.730Z,98932.56
2022-12-18T04:59:57.828Z,98942.81
2022-12-18T05:02:24.954Z,98933.97
2022-12-18T05:04:52.171Z,98928.72
2022-12-18T05:07:19.263Z,98922.06
2022-12-18T05:09:46.428Z,98931.59
2022-12-18T05:12:13.468Z,98932.78
2022-12-18T05:14:40.588Z,98939.09
2022-12-18T05:17:07.631Z,98944.44
2022-12-18T05:19:35.344Z,98946.47
2022-12-18T05:22:02.589Z,98946.38
2022-12-18T05:24:29.564Z,98943.03
2022-12-18T05:26:56.587Z,98947.69
2022-12-18T05:29:23.659Z,98962.44
2022-12-18T05:31:53.965Z,98962.09
2022-12-18T05:34:21.074Z,98972.81
2022-12-18T05:36:48.070Z,98977.59
2022-12-18T05:39:15.183Z,98982.34
2022-12-18T05:41:42.310Z,98985.81
2022-12-18T05:44:09.988Z,98989.03
2022-12-18T05:46:37.573Z,98997.47
2022-12-18T05:49:04.600Z,99002.50
2022-12-18T05:51:32.541Z,99004.16
2022-12-18T05:53:59.730Z,99003.56
2022-12-18T05:56:26.742Z,99008.06
2022-12-18T05:58:55.130Z,99019.28
2022-12-18T06:01:25.727Z,99021.53
2022-12-18T06:03:53.129Z,99024.44
2022-12-18T06:06:25.881Z,99021.41
2022-12-18T06:08:54.419Z,99028.34
2022-12-18T06:11:24.257Z,99033.34
2022-12-18T06:13:58.133Z,99046.31
2022-12-18T06:16:25.675Z,99045.63
2022-12-18T06:18:52.755Z,99049.91
2022-12-18T06:21:19.839Z,99045.63
2022-12-18T06:23:46.849Z,99051.81
2022-12-18T06:26:14.938Z,99048.97
2022-12-18T06:28:42.443Z,99044.19
2022-12-18T06:31:10.489Z,99058.81
2022-12-18T06:33:38.730Z,99066.47
2022-12-18T06:36:07.708Z,99071.47
2022-12-18T06:38:35.867Z,99070.19
2022-12-18T06:41:14.893Z,99076.75
2022-12-18T06:43:42.422Z,99091.06
2022-12-18T06:46:10.606Z,99096.31
2022-12-18T06:48:37.658Z,99101.53
2022-12-18T06:51:05.121Z,99115.16
2022-12-18T06:53:33.557Z,99123.25
2022-12-18T06:56:10.603Z,99127.81
2022-12-18T06:58:41.864Z,99127.34
2022-12-18T07:01:11.592Z,99134.28
2022-12-18T07:03:43.351Z,99137.81
2022-12-18T07:06:20.081Z,99139.84
2022-12-18T07:08:47.764Z,99127.56
2022-12-18T07:11:15.654Z,99133.88
2022-12-18T07:13:43.029Z,99132.13
2022-12-18T07:16:20.937Z,99140.69
2022-12-18T07:18:51.181Z,99139.53
2022-12-18T07:21:20.535Z,99146.66
2022-12-18T07:23:49.392Z,99162.03
2022-12-18T07:26:19.258Z,99167.38
2022-12-18T07:28:46.484Z,99174.41
2022-12-18T07:31:16.699Z,99180.72
2022-12-18T07:33:44.501Z,99176.94
2022-12-18T07:36:14.829Z,99190.53
2022-12-18T07:38:41.982Z,99183.13
2022-12-18T07:41:13.127Z,99188.94
2022-12-18T07:43:41.915Z,99190.84
2022-12-18T07:46:27.648Z,99184.53
2022-12-18T07:48:54.664Z,99192.03
2022-12-18T07:51:21.693Z,99197.19
2022-12-18T07:53:52.226Z,99194.84
2022-12-18T07:56:30.008Z,99197.94
2022-12-18T07:58:58.801Z,99195.53
2022-12-18T08:01:26.159Z,99195.53
2022-12-18T08:03:54.567Z,99201.16
2022-12-18T08:06:23.311Z,99207.81
2022-12-18T08:08:53.596Z,99211.75
2022-12-18T08:11:20.783Z,99220.34
2022-12-18T08:13:48.524Z,99227.63
2022-12-18T08:16:16.972Z,99230.97
2022-12-18T08:18:44.082Z,99243.03
2022-12-18T08:21:12.271Z,99258.19
2022-12-18T08:23:43.147Z,99258.19
2022-12-18T08:26:12.325Z,99262.38
2022-12-18T08:28:41.446Z,99272.59
2022-12-18T08:31:09.208Z,99260.13
2022-12-18T08:33:38.839Z,99269.97
2022-12-18T08:36:07.348Z,99259.47
2022-12-18T08:38:34.658Z,99262.09
2022-12-18T08:41:03.977Z,99270.97
2022-12-18T08:43:49.640Z,99270.63
2022-12-18T08:46:17.075Z,99274.81
2022-12-18T08:48:44.785Z,99281.25
2022-12-18T08:51:12.123Z,99280.94
2022-12-18T08:53:39.781Z,99281.16
2022-12-18T08:56:07.440Z,99286.03
2022-12-18T08:58:34.459Z,99287.50
2022-12-18T09:05:03.218Z,99273.84
2022-12-18T09:07:30.470Z,99269.38
2022-12-18T09:09:57.550Z,99278.56
2022-12-18T09:12:24.729Z,99287.75
2022-12-18T09:14:51.842Z,99291.22
2022-12-18T09:17:18.937Z,99305.66
2022-12-18T09:19:45.973Z,99303.50
2022-12-18T09:22:12.976Z,99317.34
2022-12-18T09:24:40.201Z,99320.13
2022-12-18T09:35:39.997Z,99314.22
2022-12-18T09:38:07.589Z,99343.16
2022-12-18T09:40:40.928Z,99345.03
2022-12-18T09:43:15.618Z,99350.53
2022-12-18T09:45:47.445Z,99353.06
2022-12-18T09:48:32.522Z,99355.56
2022-12-18T09:51:12.625Z,99357.00
2022-12-18T09:53:42.314Z,99360.34
2022-12-18T09:56:17.254Z,99356.56
2022-12-18T09:58:57.016Z,99356.56
2022-12-18T10:01:28.973Z,99365.13
2022-12-18T10:04:01.037Z,99366.81
2022-12-18T10:06:36.632Z,99364.44
2022-12-18T10:09:30.815Z,99371.63
2022-12-18T10:12:40.572Z,99382.34
2022-12-18T10:15:10.281Z,99376.59
2022-12-18T10:17:54.337Z,99379.00
2022-12-18T10:20:44.184Z,99374.66
2022-12-18T10:23:11.114Z,99376.00
2022-12-18T10:25:59.921Z,99372.53
2022-12-18T10:28:28.048Z,99369.31
2022-12-18T10:30:55.200Z,99368.50
2022-12-18T10:33:25.847Z,99371.84
2022-12-18T10:35:53.745Z,99375.63
2022-12-18T10:38:21.648Z,99378.75
2022-12-18T10:40:54.445Z,99380.44
2022-12-18T10:43:34.920Z,99384.84
2022-12-18T10:46:10.963Z,99391.91
2022-12-18T10:48:42.414Z,99402.72
2022-12-18T10:51:12.687Z,99406.56
2022-12-18T10:53:43.826Z,99404.06
2022-12-18T10:56:20.868Z,99421.47
2022-12-18T10:59:24.293Z,99432.09
2022-12-18T11:01:58.470Z,99435.56
2022-12-18T11:04:31.578Z,99439.88
2022-12-18T11:07:09.967Z,99447.00
2022-12-18T11:09:41.479Z,99447.75
2022-12-18T11:12:11.463Z,99455.13
2022-12-18T11:14:50.609Z,99449.84
2022-12-18T11:17:26.531Z,99452.69
2022-12-18T11:20:28.861Z,99453.22
2022-12-18T11:23:15.409Z,99452.16
2022-12-18T11:25:53.164Z,99448.81
2022-12-18T11:28:45.862Z,99453.97
2022-12-18T11:31:18.569Z,99457.19
2022-12-18T11:38:22.318Z,99465.75
2022-12-18T11:40:56.355Z,99465.19
2022-12-18T11:43:30.838Z,99467.16
2022-12-18T11:46:24.406Z,99476.03
2022-12-18T11:49:03.205Z,99477.69
2022-12-18T11:51:38.715Z,99481.78
2022-12-18T11:54:16.673Z,99491.09
2022-12-18T11:57:17.038Z,99500.16
2022-12-18T12:00:02.164Z,99499.78
2022-12-18T12:03:04.347Z,99524.44
2022-12-18T12:05:40.683Z,99522.44
2022-12-18T12:08:59.646Z,99535.78
2022-12-18T12:11:49.633Z,99544.41
2022-12-18T12:14:33.109Z,99549.00
2022-12-18T12:17:04.044Z,99560.03
2022-12-18T12:19:44.988Z,99557.19
2022-12-18T12:22:14.624Z,99556.22
2022-12-18T12:25:22.538Z,99559.59
2022-12-18T12:28:24.755Z,99564.88
2022-12-18T12:31:10.186Z,99572.13
2022-12-18T12:33:55.341Z,99581.81
2022-12-18T12:36:33.873Z,99589.78
2022-12-18T12:39:06.712Z,99594.00
2022-12-18T12:41:55.023Z,99584.22
2022-12-18T12:44:37.075Z,99596.84
2022-12-18T12:47:16.041Z,99602.50
2022-12-18T12:52:43.920Z,99612.38
2022-12-18T12:55:24.256Z,99612.69
2022-12-18T12:58:32.504Z,99624.53
2022-12-18T13:01:23.515Z,99635.47
2022-12-18T13:03:57.602Z,99632.75
2022-12-18T13:06:41.520Z,99642.28
2022-12-18T13:09:11.723Z,99638.81
2022-12-18T13:12:03.871Z,99645.31
2022-12-18T13:14:36.093Z,99646.16
2022-12-18T13:17:21.340Z,99654.78
2022-12-18T13:20:03.516Z,99664.44
2022-12-18T13:22:47.488Z,99657.19
2022-12-18T13:25:38.339Z,99677.09
2022-12-18T13:28:13.929Z,99673.84
2022-12-18T13:30:41.491Z,99680.78
2022-12-18T13:33:17.700Z,99687.28
2022-12-18T13:35:47.751Z,99686.13
2022-12-18T13:38:27.606Z,99694.84
2022-12-18T13:40:56.600Z,99698.94
2022-12-18T13:43:25.627Z,99711.75
2022-12-18T13:46:38.507Z,99718.78
2022-12-18T13:49:38.537Z,99739.38
2022-12-18T13:52:37.547Z,99738.31
2022-12-18T13:55:08.969Z,99736.19
2022-12-18T13:57:41.958Z,99740.53
2022-12-18T14:00:29.807Z,99742.81
2022-12-18T14:02:58.523Z,99751.44
2022-12-18T14:05:29.663Z,99743.78
2022-12-18T14:08:02.096Z,99762.34
2022-12-18T14:10:48.699Z,99755.94
2022-12-18T14:13:25.839Z,99762.97
2022-12-18T14:15:53.488Z,99774.44
2022-12-18T14:18:43.446Z,99777.47
2022-12-18T14:21:28.257Z,99785.97
2022-12-18T14:24:17.498Z,99777.91
2022-12-18T14:26:50.358Z,99794.38
2022-12-18T14:29:29.746Z,99799.41
2022-12-18T14:32:20.594Z,99805.63
2022-12-18T14:34:52.753Z,99809.41
2022-12-18T14:37:24.070Z,99817.69
2022-12-18T14:40:10.912Z,99826.41
2022-12-18T14:42:40.104Z,99837.66
2022-12-18T14:45:42.594Z,99835.72
2022-12-18T14:48:16.497Z,99844.34
2022-12-18T14:50:57.959Z,99849.25
2022-12-18T14:53:40.836Z,99835.84
2022-12-18T14:56:17.089Z,99847.91
2022-12-18T14:58:53.088Z,99857.44
2022-12-18T15:01:24.040Z,99872.16
2022-12-18T15:03:53.113Z,99862.69
2022-12-18T15:06:28.584Z,99869.97
2022-12-18T15:08:56.017Z,99866.59
2022-12-18T15:11:47.253Z,99873.69
2022-12-18T15:14:30.134Z,99868.25
2022-12-18T15:16:58.664Z,99887.50
2022-12-18T15:19:45.533Z,99879.19
2022-12-18T15:22:27.124Z,99886.50
2022-12-18T15:24:55.895Z,99895.03
2022-12-18T15:27:32.758Z,99896.75
2022-12-18T15:30:10.322Z,99897.78
2022-12-18T15:32:38.860Z,99900.59
2022-12-18T15:35:12.055Z,99908.47
2022-12-18T15:37:42.674Z,99917.09
2022-12-18T15:40:17.753Z,99915.44
2022-12-18T15:43:05.122Z,99917.69
2022-12-18T15:45:32.314Z,99917.50
2022-12-18T15:48:00.280Z,99922.47
2022-12-18T15:50:27.771Z,99922.19
2022-12-18T15:52:56.922Z,99916.09
2022-12-18T15:55:43.811Z,99924.81
2022-12-18T15:58:12.811Z,99930.72
2022-12-18T16:00:41.626Z,99938.28
2022-12-18T16:03:11.031Z,99935.38
2022-12-18T16:05:38.221Z,99938.47
2022-12-18T16:08:05.415Z,99948.00
2022-12-18T16:10:32.804Z,99959.53
2022-12-18T16:12:59.934Z,99961.13
2022-12-18T16:15:27.196Z,99976.84
2022-12-18T16:17:54.418Z,99974.22
2022-12-18T16:20:23.152Z,99981.91
2022-12-18T16:22:51.227Z,99984.44
2022-12-18T16:25:29.726Z,99993.53
2022-12-18T16:28:02.269Z,99988.00
2022-12-18T16:30:38.935Z,99993.69
2022-12-18T16:33:07.554Z,100005.31
2022-12-18T16:35:38.272Z,99999.25
2022-12-18T16:38:06.839Z,99999.13
2022-12-18T16:40:34.146Z,100006.72
2022-12-18T16:43:01.189Z,100018.91
2022-12-18T16:45:34.238Z,100027.31
2022-12-18T16:48:01.369Z,100024.97
2022-12-18T16:50:28.494Z,100026.88
2022-12-18T16:52:55.596Z,100033.56
2022-12-18T16:55:22.682Z,100024.81
2022-12-18T16:57:49.632Z,100036.56
2022-12-18T17:00:17.136Z,100047.03
2022-12-18T17:02:44.443Z,100047.38
2022-12-18T17:05:11.646Z,100058.16
2022-12-18T17:07:38.975Z,100062.66
2022-12-18T17:10:06.463Z,100060.91
2022-12-18T17:12:33.500Z,100073.31
2022-12-18T17:15:00.608Z,100079.75
2022-12-18T17:17:27.589Z,100082.72
2022-12-18T17:19:54.659Z,100074.88
2022-12-18T17:22:23.499Z,100090.41
2022-12-18T17:24:50.901Z,100083.13
2022-12-18T17:27:18.020Z,100085.56
2022-12-18T17:29:47.829Z,100097.88
2022-12-18T17:32:17.147Z,100094.13
2022-12-18T17:34:44.178Z,100100.81
2022-12-18T17:37:11.157Z,100098.47
2022-12-18T17:39:38.745Z,100098.44
2022-12-18T17:42:06.008Z,100114.13
2022-12-18T17:44:35.770Z,100121.97
2022-12-18T17:47:03.158Z,100124.06
2022-12-18T17:49:31.154Z,100132.13
2022-12-18T17:51:58.180Z,100136.50
2022-12-18T17:54:25.160Z,100141.22
2022-12-18T17:56:52.184Z,100144.88
2022-12-18T17:59:19.196Z,100149.13
2022-12-18T18:01:46.331Z,100141.00
2022-12-18T18:04:14.639Z,100144.66
2022-12-18T18:06:42.110Z,100152.59
2022-12-18T18:09:15.111Z,100159.81
2022-12-18T18:12:03.073Z,100167.28
2022-12-18T18:14:30.533Z,100175.56
2022-12-18T18:16:59.190Z,100167.38
2022-12-18T18:19:33.189Z,100173.09
2022-12-18T18:22:01.642Z,100180.25
2022-12-18T18:24:30.238Z,100183.06
2022-12-18T18:26:59.696Z,100188.13
2022-12-18T18:29:30.579Z,100191.53
2022-12-18T18:31:58.449Z,100195.97
2022-12-18T18:34:27.882Z,100205.31
2022-12-18T18:36:54.946Z,100201.59
2022-12-18T18:39:25.706Z,100207.78
2022-12-18T18:41:52.784Z,100209.16
2022-12-18T18:44:24.743Z,100213.03
2022-12-18T18:46:58.430Z,100215.94
2022-12-18T18:49:27.821Z,100225.88
2022-12-18T18:51:56.716Z,100222.44
2022-12-18T18:54:24.604Z,100229.41
2022-12-18T18:59:39.006Z,100237.38
2022-12-18T19:02:06.726Z,100252.69
2022-12-18T19:04:34.695Z,100255.84
2022-12-18T19:07:02.080Z,100266.41
2022-12-18T19:09:29.523Z,100267.41
2022-12-18T19:12:15.324Z,100279.13
2022-12-18T19:14:43.043Z,100279.16
2022-12-18T19:17:10.962Z,100292.72
2022-12-18T19:19:38.029Z,100294.53
2022-12-18T19:22:09.609Z,100299.75
2022-12-18T19:24:36.864Z,100301.44
2022-12-18T19:27:04.068Z,100298.19
2022-12-18T19:29:32.322Z,100308.88
2022-12-18T19:31:59.489Z,100296.94
2022-12-18T19:34:27.035Z,100309.97
2022-12-18T19:36:59.395Z,100313.97
2022-12-18T19:39:27.196Z,100316.88
2022-12-18T19:41:54.830Z,100321.25
2022-12-18T19:44:22.168Z,100321.34
2022-12-18T19:46:52.638Z,100339.69
2022-12-18T19:49:21.063Z,100341.25
2022-12-18T19:51:51.009Z,100340.66
2022-12-18T19:54:18.307Z,100342.47
2022-12-18T19:56:45.974Z,100340.06
2022-12-18T19:59:13.380Z,100343.13
2022-12-18T20:01:40.524Z,100346.53
2022-12-18T20:04:07.860Z,100350.84
2022-12-18T20:06:53.070Z,100348.59
2022-12-18T20:09:21.166Z,100357.03
2022-12-18T20:11:49.028Z,100353.63
2022-12-18T20:14:22.490Z,100352.19
2022-12-18T20:16:51.364Z,100366.38
2022-12-18T20:19:19.396Z,100375.03
2022-12-18T20:21:46.726Z,100374.78
2022-12-18T20:24:13.926Z,100374.94
2022-12-18T20:26:40.924Z,100377.03
2022-12-18T20:29:08.053Z,100384.66
2022-12-18T20:31:35.338Z,100382.00
2022-12-18T20:34:03.776Z,100388.91
2022-12-18T20:36:34.154Z,100382.47
2022-12-18T20:39:05.395Z,100386.06
2022-12-18T20:45:30.534Z,100393.09
2022-12-18T20:47:58.206Z,100390.31
2022-12-18T20:50:25.236Z,100397.47
2022-12-18T20:52:52.284Z,100399.28
2022-12-18T20:55:19.663Z,100388.78
2022-12-18T20:57:46.706Z,100390.66
2022-12-18T21:00:14.239Z,100403.75
2022-12-18T21:02:46.127Z,100397.03
2022-12-18T21:05:13.359Z,100410.97
2022-12-18T21:07:40.381Z,100415.44
2022-12-18T21:10:07.712Z,100414.59
2022-12-18T21:12:42.629Z,100407.47
2022-12-18T21:15:16.684Z,100420.69
2022-12-18T21:17:45.045Z,100422.69
2022-12-18T21:20:17.315Z,100414.75
2022-12-18T21:22:44.933Z,100424.91
2022-12-18T21:25:11.933Z,100422.13
2022-12-18T21:27:40.157Z,100423.06
2022-12-18T21:30:07.802Z,100419.81
2022-12-18T21:32:34.837Z,100423.19
2022-12-18T21:35:01.819Z,100420.69
2022-12-18T21:37:30.404Z,100430.56
2022-12-18T21:39:57.379Z,100433.03
2022-12-18T21:42:50.616Z,100432.31
2022-12-18T21:45:17.575Z,100434.09
2022-12-18T21:47:44.584Z,100433.19
2022-12-18T21:50:11.567Z,100441.06
2022-12-18T21:52:38.593Z,100442.13
2022-12-18T21:55:09.406Z,100440.47
2022-12-18T21:57:40.103Z,100442.34
2022-12-18T22:00:16.821Z,100451.16
2022-12-18T22:02:47.261Z,100445.97
2022-12-18T22:05:14.459Z,100454.66
2022-12-18T22:07:41.545Z,100454.50
2022-12-18T22:10:09.162Z,100468.25
2022-12-18T22:12:43.172Z,100462.63
2022-12-18T22:15:21.701Z,100464.53
2022-12-18T22:17:51.290Z,100467.94
2022-12-18T22:20:25.121Z,100463.56
2022-12-18T22:22:53.887Z,100469.63
2022-12-18T22:25:20.849Z,100468.88
2022-12-18T22:28:07.753Z,100464.50
2022-12-18T22:30:35.278Z,100456.16
2022-12-18T22:33:03.712Z,100461.34
2022-12-18T22:35:30.718Z,100465.69
2022-12-18T22:38:01.316Z,100462.94
2022-12-18T22:40:29.456Z,100468.25
2022-12-18T22:42:56.683Z,100467.03
2022-12-18T22:45:27.953Z,100468.03
2022-12-18T22:47:55.044Z,100474.09
2022-12-18T22:50:22.095Z,100479.19
2022-12-18T22:52:49.114Z,100480.13
2022-12-18T22:55:16.257Z,100469.84
2022-12-18T22:57:48.757Z,100475.25
2022-12-18T23:00:19.859Z,100477.91
2022-12-18T23:02:59.468Z,100482.25
2022-12-18T23:05:28.687Z,100487.31
2022-12-18T23:07:55.984Z,100483.75
2022-12-18T23:10:23.002Z,100492.41
2022-12-18T23:12:49.962Z,100489.66
2022-12-18T23:15:17.046Z,100490.44
2022-12-18T23:17:46.470Z,100495.63
2022-12-18T23:20:14.020Z,100497.38
2022-12-18T23:22:40.994Z,100504.25
2022-12-18T23:25:08.362Z,100499.06
2022-12-18T23:27:35.628Z,100512.06
2022-12-18T23:30:02.626Z,100510.09
2022-12-18T23:32:31.597Z,100502.47
2022-12-18T23:34:59.959Z,100505.81
2022-12-18T23:37:50.255Z,100515.97
2022-12-18T23:40:14.006Z,100521.16
2022-12-18T23:42:41.201Z,100517.22
2022-12-18T23:45:15.879Z,100514.84
2022-12-18T23:47:47.039Z,100526.25
2022-12-18T23:50:18.018Z,100530.53
2022-12-18T23:52:45.085Z,100534.56
2022-12-18T23:55:12.042Z,100542.59
2022-12-18T23:57:39.699Z,100541.69
